THA199 VOMM-VRMM
Flight info
| Callsign | THA199 |
|---|---|
| Flight time | 1h 44m |
| Altitude | 34000 |
| Route | SAGOR2A SAGOR DCT TCN/N0435F240 W147 TVM R457 PATLO PATLO1A |
| Aircraft | B738/M-SDE2E3FGHIRWXY/LB1 |
Departure
| Time | 2026-04-23 13:58 |
|---|---|
| Airport | Chennai International Airport (VOMM) |
Arrival
| Time | 2026-04-23 15:42 |
|---|---|
| Airport | Velana International Airport (VRMM) |
| Time | Latitude | Longitude | Altitude | Speed | Heading |
|---|---|---|---|---|---|
| 2026-04-23 13:27 | 12.98438 | 80.16568 | 48 ft | 0 kts | 160° |
| 2026-04-23 13:48 | 12.98445 | 80.16566 | 48 ft | 2 kts | 160° |
| 2026-04-23 13:49 | 12.98459 | 80.16560 | 48 ft | 2 kts | 160° |
| 2026-04-23 13:49 | 12.98474 | 80.16555 | 48 ft | 2 kts | 160° |
| 2026-04-23 13:49 | 12.98488 | 80.16550 | 48 ft | 2 kts | 180° |
| 2026-04-23 13:49 | 12.98503 | 80.16554 | 48 ft | 2 kts | 202° |
| 2026-04-23 13:50 | 12.98516 | 80.16561 | 48 ft | 2 kts | 224° |
| 2026-04-23 13:50 | 12.98524 | 80.16573 | 47 ft | 1 kts | 245° |
| 2026-04-23 13:50 | 12.98527 | 80.16579 | 47 ft | 1 kts | 250° |
| 2026-04-23 13:50 | 12.98527 | 80.16580 | 47 ft | 0 kts | 250° |
| 2026-04-23 13:53 | 12.98526 | 80.16578 | 47 ft | 1 kts | 250° |
| 2026-04-23 13:53 | 12.98519 | 80.16559 | 47 ft | 4 kts | 247° |
| 2026-04-23 13:53 | 12.98503 | 80.16521 | 48 ft | 7 kts | 248° |
| 2026-04-23 13:53 | 12.98481 | 80.16462 | 47 ft | 11 kts | 249° |
| 2026-04-23 13:54 | 12.98457 | 80.16398 | 46 ft | 3 kts | 249° |
| 2026-04-23 13:54 | 12.98450 | 80.16378 | 46 ft | 5 kts | 250° |
| 2026-04-23 13:54 | 12.98433 | 80.16331 | 46 ft | 8 kts | 250° |
| 2026-04-23 13:54 | 12.98408 | 80.16263 | 46 ft | 11 kts | 249° |
| 2026-04-23 13:55 | 12.98386 | 80.16204 | 47 ft | 9 kts | 250° |
| 2026-04-23 13:55 | 12.98362 | 80.16138 | 47 ft | 8 kts | 248° |
| 2026-04-23 13:55 | 12.98339 | 80.16077 | 46 ft | 10 kts | 249° |
| 2026-04-23 13:55 | 12.98309 | 80.15995 | 45 ft | 11 kts | 250° |
| 2026-04-23 13:56 | 12.98290 | 80.15903 | 45 ft | 15 kts | 283° |
| 2026-04-23 13:56 | 12.98324 | 80.15789 | 45 ft | 18 kts | 285° |
| 2026-04-23 13:56 | 12.98362 | 80.15653 | 44 ft | 21 kts | 287° |
| 2026-04-23 13:56 | 12.98395 | 80.15527 | 43 ft | 13 kts | 285° |
| 2026-04-23 13:57 | 12.98409 | 80.15420 | 43 ft | 16 kts | 259° |
| 2026-04-23 13:57 | 12.98399 | 80.15342 | 43 ft | 11 kts | 301° |
| 2026-04-23 13:57 | 12.98455 | 80.15387 | 42 ft | 17 kts | 66° |
| 2026-04-23 13:57 | 12.98635 | 80.15869 | 42 ft | 126 kts | 70° |
| 2026-04-23 13:58 | 12.99011 | 80.16937 | 484 ft | 180 kts | 70° |
| 2026-04-23 13:58 | 12.99446 | 80.18178 | 1010 ft | 209 kts | 70° |
| 2026-04-23 13:58 | 13.00038 | 80.19737 | 1394 ft | 258 kts | 68° |
| 2026-04-23 13:58 | 13.00676 | 80.21402 | 2925 ft | 256 kts | 68° |
| 2026-04-23 13:59 | 13.01328 | 80.23102 | 4157 ft | 265 kts | 69° |
| 2026-04-23 13:59 | 13.01987 | 80.24821 | 5418 ft | 269 kts | 68° |
| 2026-04-23 13:59 | 13.02672 | 80.26618 | 6774 ft | 279 kts | 68° |
| 2026-04-23 13:59 | 13.03363 | 80.28445 | 8333 ft | 281 kts | 71° |
| 2026-04-23 14:00 | 13.03426 | 80.30419 | 9589 ft | 290 kts | 105° |
| 2026-04-23 14:00 | 13.02432 | 80.32144 | 10846 ft | 298 kts | 131° |
| 2026-04-23 14:00 | 13.00712 | 80.33657 | 11093 ft | 341 kts | 147° |
| 2026-04-23 14:00 | 12.98508 | 80.34431 | 12506 ft | 343 kts | 170° |
| 2026-04-23 14:01 | 12.96145 | 80.34805 | 13719 ft | 350 kts | 171° |
| 2026-04-23 14:01 | 12.93737 | 80.35187 | 14901 ft | 357 kts | 171° |
| 2026-04-23 14:01 | 12.91293 | 80.35581 | 16039 ft | 363 kts | 171° |
| 2026-04-23 14:01 | 12.88806 | 80.35983 | 17127 ft | 369 kts | 171° |
| 2026-04-23 14:02 | 12.86258 | 80.36396 | 18175 ft | 375 kts | 171° |
| 2026-04-23 14:02 | 12.83675 | 80.36782 | 19162 ft | 382 kts | 175° |
| 2026-04-23 14:02 | 12.81024 | 80.36790 | 20139 ft | 386 kts | 181° |
| 2026-04-23 14:02 | 12.78350 | 80.36716 | 21051 ft | 392 kts | 181° |
| 2026-04-23 14:03 | 12.75616 | 80.36641 | 21945 ft | 398 kts | 181° |
| 2026-04-23 14:03 | 12.72841 | 80.36565 | 22815 ft | 403 kts | 181° |
| 2026-04-23 14:03 | 12.70058 | 80.36489 | 23645 ft | 408 kts | 181° |
| 2026-04-23 14:03 | 12.67225 | 80.36411 | 24449 ft | 413 kts | 181° |
| 2026-04-23 14:04 | 12.64348 | 80.36335 | 25234 ft | 418 kts | 181° |
| 2026-04-23 14:04 | 12.61420 | 80.36237 | 25994 ft | 423 kts | 182° |
| 2026-04-23 14:04 | 12.58475 | 80.36122 | 26724 ft | 428 kts | 182° |
| 2026-04-23 14:04 | 12.55505 | 80.36007 | 27425 ft | 432 kts | 182° |
| 2026-04-23 14:05 | 12.52536 | 80.35891 | 28093 ft | 437 kts | 182° |
| 2026-04-23 14:05 | 12.49490 | 80.35772 | 28826 ft | 439 kts | 182° |
| 2026-04-23 14:05 | 12.46437 | 80.35654 | 29699 ft | 438 kts | 182° |
| 2026-04-23 14:05 | 12.43425 | 80.35536 | 30531 ft | 436 kts | 182° |
| 2026-04-23 14:06 | 12.40442 | 80.35420 | 31333 ft | 435 kts | 182° |
| 2026-04-23 14:06 | 12.37426 | 80.35304 | 32114 ft | 433 kts | 182° |
| 2026-04-23 14:06 | 12.34464 | 80.35188 | 32854 ft | 432 kts | 182° |
| 2026-04-23 14:06 | 12.31480 | 80.35072 | 33574 ft | 430 kts | 182° |
| 2026-04-23 14:07 | 12.28530 | 80.34958 | 33926 ft | 426 kts | 182° |
| 2026-04-23 14:07 | 12.22414 | 80.34721 | 34017 ft | 457 kts | 182° |
| 2026-04-23 14:07 | 12.19182 | 80.34595 | 34011 ft | 466 kts | 182° |
| 2026-04-23 14:08 | 12.12742 | 80.34345 | 33996 ft | 463 kts | 182° |
| 2026-04-23 14:08 | 12.06345 | 80.34097 | 34000 ft | 462 kts | 182° |
| 2026-04-23 14:09 | 11.99937 | 80.33849 | 34000 ft | 463 kts | 182° |
| 2026-04-23 14:09 | 11.93531 | 80.33601 | 33999 ft | 463 kts | 182° |
| 2026-04-23 14:10 | 11.87119 | 80.33353 | 34000 ft | 463 kts | 182° |
| 2026-04-23 14:10 | 11.80715 | 80.33105 | 34000 ft | 463 kts | 182° |
| 2026-04-23 14:11 | 11.77565 | 80.32605 | 33938 ft | 463 kts | 199° |
| 2026-04-23 14:11 | 11.74769 | 80.30994 | 34001 ft | 463 kts | 219° |
| 2026-04-23 14:11 | 11.70017 | 80.26601 | 34003 ft | 463 kts | 218° |
| 2026-04-23 14:12 | 11.64892 | 80.22662 | 34000 ft | 463 kts | 216° |
| 2026-04-23 14:12 | 11.59722 | 80.18762 | 34000 ft | 463 kts | 216° |
| 2026-04-23 14:13 | 11.54558 | 80.14872 | 34000 ft | 463 kts | 216° |
| 2026-04-23 14:13 | 11.49416 | 80.11001 | 34000 ft | 463 kts | 216° |
| 2026-04-23 14:14 | 11.44234 | 80.07101 | 34000 ft | 463 kts | 216° |
| 2026-04-23 14:14 | 11.39080 | 80.03225 | 34000 ft | 463 kts | 216° |
| 2026-04-23 14:15 | 11.33902 | 79.99332 | 34000 ft | 463 kts | 216° |
| 2026-04-23 14:15 | 11.28752 | 79.95461 | 34000 ft | 463 kts | 216° |
| 2026-04-23 14:16 | 11.23570 | 79.91569 | 34000 ft | 463 kts | 216° |
| 2026-04-23 14:16 | 11.18414 | 79.87698 | 34000 ft | 463 kts | 216° |
| 2026-04-23 14:17 | 11.13246 | 79.83820 | 34000 ft | 463 kts | 216° |
| 2026-04-23 14:17 | 11.08104 | 79.79962 | 34000 ft | 463 kts | 216° |
| 2026-04-23 14:18 | 11.02933 | 79.76086 | 34000 ft | 463 kts | 216° |
| 2026-04-23 14:18 | 10.97769 | 79.72216 | 34000 ft | 463 kts | 216° |
| 2026-04-23 14:19 | 10.92606 | 79.68347 | 34000 ft | 463 kts | 216° |
| 2026-04-23 14:19 | 10.87403 | 79.64452 | 34000 ft | 463 kts | 216° |
| 2026-04-23 14:20 | 10.82252 | 79.60597 | 34000 ft | 463 kts | 216° |
| 2026-04-23 14:20 | 10.77093 | 79.56737 | 34000 ft | 463 kts | 216° |
| 2026-04-23 14:21 | 10.71909 | 79.52861 | 34000 ft | 463 kts | 216° |
| 2026-04-23 14:21 | 10.66732 | 79.48991 | 34000 ft | 463 kts | 216° |
| 2026-04-23 14:22 | 10.61581 | 79.45143 | 34000 ft | 463 kts | 216° |
| 2026-04-23 14:22 | 10.56415 | 79.41284 | 34000 ft | 463 kts | 216° |
| 2026-04-23 14:23 | 10.51210 | 79.37399 | 34000 ft | 463 kts | 216° |
| 2026-04-23 14:23 | 10.46057 | 79.33554 | 34000 ft | 463 kts | 216° |
| 2026-04-23 14:24 | 10.40863 | 79.29679 | 34000 ft | 463 kts | 216° |
| 2026-04-23 14:24 | 10.35709 | 79.25837 | 34000 ft | 463 kts | 216° |
| 2026-04-23 14:25 | 10.30535 | 79.21981 | 34000 ft | 463 kts | 216° |
| 2026-04-23 14:25 | 10.25347 | 79.18117 | 34000 ft | 463 kts | 216° |
| 2026-04-23 14:26 | 10.20189 | 79.14276 | 34000 ft | 463 kts | 216° |
| 2026-04-23 14:26 | 10.15023 | 79.10431 | 34000 ft | 463 kts | 216° |
| 2026-04-23 14:27 | 10.09829 | 79.06566 | 34000 ft | 463 kts | 216° |
| 2026-04-23 14:27 | 10.04645 | 79.02711 | 34000 ft | 463 kts | 216° |
| 2026-04-23 14:28 | 9.99475 | 78.98867 | 34000 ft | 463 kts | 216° |
| 2026-04-23 14:28 | 9.94292 | 78.95016 | 34000 ft | 463 kts | 216° |
| 2026-04-23 14:29 | 9.89106 | 78.91164 | 34005 ft | 463 kts | 216° |
| 2026-04-23 14:29 | 9.84529 | 78.86662 | 34055 ft | 461 kts | 234° |
| 2026-04-23 14:30 | 9.80828 | 78.81366 | 34003 ft | 463 kts | 234° |
| 2026-04-23 14:30 | 9.77118 | 78.76068 | 33999 ft | 463 kts | 234° |
| 2026-04-23 14:31 | 9.73384 | 78.70741 | 34000 ft | 463 kts | 234° |
| 2026-04-23 14:31 | 9.69670 | 78.65447 | 34000 ft | 463 kts | 234° |
| 2026-04-23 14:32 | 9.65943 | 78.60134 | 34000 ft | 463 kts | 234° |
| 2026-04-23 14:32 | 9.62221 | 78.54831 | 34000 ft | 463 kts | 234° |
| 2026-04-23 14:33 | 9.58504 | 78.49538 | 34000 ft | 463 kts | 234° |
| 2026-04-23 14:33 | 9.54786 | 78.44245 | 34000 ft | 463 kts | 234° |
| 2026-04-23 14:34 | 9.51057 | 78.38941 | 34000 ft | 463 kts | 234° |
| 2026-04-23 14:34 | 9.47321 | 78.33628 | 34000 ft | 463 kts | 234° |
| 2026-04-23 14:35 | 9.43600 | 78.28338 | 34000 ft | 463 kts | 234° |
| 2026-04-23 14:35 | 9.39877 | 78.23048 | 34000 ft | 463 kts | 234° |
| 2026-04-23 14:36 | 9.36160 | 78.17767 | 34000 ft | 463 kts | 234° |
| 2026-04-23 14:36 | 9.32426 | 78.12466 | 34000 ft | 463 kts | 234° |
| 2026-04-23 14:37 | 9.28690 | 78.07165 | 34000 ft | 463 kts | 234° |
| 2026-04-23 14:37 | 9.24956 | 78.01868 | 34000 ft | 463 kts | 234° |
| 2026-04-23 14:38 | 9.21244 | 77.96604 | 34000 ft | 463 kts | 234° |
| 2026-04-23 14:38 | 9.17497 | 77.91293 | 34000 ft | 463 kts | 234° |
| 2026-04-23 14:39 | 9.13782 | 77.86031 | 34000 ft | 463 kts | 234° |
| 2026-04-23 14:39 | 9.10041 | 77.80733 | 34000 ft | 463 kts | 234° |
| 2026-04-23 14:40 | 9.06320 | 77.75464 | 34000 ft | 463 kts | 234° |
| 2026-04-23 14:40 | 9.02591 | 77.70188 | 34000 ft | 463 kts | 234° |
| 2026-04-23 14:41 | 8.98839 | 77.64880 | 34000 ft | 463 kts | 234° |
| 2026-04-23 14:41 | 8.95109 | 77.59608 | 34004 ft | 463 kts | 234° |
| 2026-04-23 14:42 | 8.91381 | 77.54338 | 34001 ft | 463 kts | 234° |
| 2026-04-23 14:42 | 8.87623 | 77.49030 | 33999 ft | 463 kts | 234° |
| 2026-04-23 14:43 | 8.83904 | 77.43778 | 34000 ft | 463 kts | 234° |
| 2026-04-23 14:43 | 8.80156 | 77.38487 | 34000 ft | 463 kts | 234° |
| 2026-04-23 14:44 | 8.76400 | 77.33188 | 34000 ft | 463 kts | 234° |
| 2026-04-23 14:44 | 8.72669 | 77.27925 | 34000 ft | 463 kts | 234° |
| 2026-04-23 14:45 | 8.68922 | 77.22642 | 34000 ft | 463 kts | 234° |
| 2026-04-23 14:45 | 8.65199 | 77.17396 | 34000 ft | 463 kts | 234° |
| 2026-04-23 14:46 | 8.61457 | 77.12124 | 34000 ft | 463 kts | 234° |
| 2026-04-23 14:46 | 8.57694 | 77.06825 | 34000 ft | 463 kts | 234° |
| 2026-04-23 14:47 | 8.53971 | 77.01584 | 34000 ft | 463 kts | 234° |
| 2026-04-23 14:47 | 8.50218 | 76.96303 | 34000 ft | 463 kts | 234° |
| 2026-04-23 14:48 | 8.46040 | 76.91397 | 34029 ft | 462 kts | 220° |
| 2026-04-23 14:48 | 8.41046 | 76.87300 | 34001 ft | 463 kts | 218° |
| 2026-04-23 14:49 | 8.36044 | 76.83292 | 34000 ft | 463 kts | 218° |
| 2026-04-23 14:49 | 8.31004 | 76.79261 | 34000 ft | 463 kts | 218° |
| 2026-04-23 14:50 | 8.25967 | 76.75233 | 34000 ft | 463 kts | 218° |
| 2026-04-23 14:50 | 8.20921 | 76.71198 | 34000 ft | 463 kts | 218° |
| 2026-04-23 14:51 | 8.15906 | 76.67190 | 34000 ft | 463 kts | 218° |
| 2026-04-23 14:51 | 8.10859 | 76.63158 | 34000 ft | 463 kts | 218° |
| 2026-04-23 14:52 | 8.05820 | 76.59134 | 34000 ft | 463 kts | 218° |
| 2026-04-23 14:52 | 8.00788 | 76.55116 | 34000 ft | 463 kts | 218° |
| 2026-04-23 14:53 | 7.95772 | 76.51112 | 34000 ft | 463 kts | 218° |
| 2026-04-23 14:53 | 7.90747 | 76.47103 | 34000 ft | 463 kts | 218° |
| 2026-04-23 14:54 | 7.85682 | 76.43063 | 34000 ft | 463 kts | 218° |
| 2026-04-23 14:54 | 7.80649 | 76.39051 | 34000 ft | 463 kts | 218° |
| 2026-04-23 14:55 | 7.75621 | 76.35043 | 33999 ft | 463 kts | 218° |
| 2026-04-23 14:55 | 7.70602 | 76.31042 | 34000 ft | 463 kts | 218° |
| 2026-04-23 14:56 | 7.65536 | 76.27007 | 34000 ft | 463 kts | 218° |
| 2026-04-23 14:56 | 7.60504 | 76.23000 | 34000 ft | 463 kts | 218° |
| 2026-04-23 14:57 | 7.55466 | 76.18988 | 34000 ft | 463 kts | 218° |
| 2026-04-23 14:57 | 7.50432 | 76.14982 | 34000 ft | 463 kts | 218° |
| 2026-04-23 14:58 | 7.45385 | 76.10966 | 34000 ft | 463 kts | 218° |
| 2026-04-23 14:58 | 7.40356 | 76.06966 | 34000 ft | 463 kts | 218° |
| 2026-04-23 14:59 | 7.35307 | 76.02951 | 34000 ft | 463 kts | 218° |
| 2026-04-23 14:59 | 7.30268 | 75.98946 | 34000 ft | 463 kts | 218° |
| 2026-04-23 15:00 | 7.25228 | 75.94940 | 34000 ft | 463 kts | 218° |
| 2026-04-23 15:00 | 7.20209 | 75.90953 | 34000 ft | 463 kts | 218° |
| 2026-04-23 15:01 | 7.15162 | 75.86944 | 34000 ft | 463 kts | 218° |
| 2026-04-23 15:01 | 7.10116 | 75.82938 | 34000 ft | 463 kts | 218° |
| 2026-04-23 15:02 | 7.05057 | 75.78922 | 34000 ft | 463 kts | 218° |
| 2026-04-23 15:02 | 7.00018 | 75.74923 | 33998 ft | 463 kts | 218° |
| 2026-04-23 15:03 | 6.94974 | 75.70923 | 33999 ft | 463 kts | 218° |
| 2026-04-23 15:03 | 6.89933 | 75.66917 | 33999 ft | 463 kts | 218° |
| 2026-04-23 15:04 | 6.84908 | 75.62940 | 33999 ft | 463 kts | 218° |
| 2026-04-23 15:04 | 6.79848 | 75.58930 | 34000 ft | 463 kts | 218° |
| 2026-04-23 15:05 | 6.74809 | 75.54936 | 34000 ft | 463 kts | 218° |
| 2026-04-23 15:05 | 6.69764 | 75.50937 | 33999 ft | 463 kts | 218° |
| 2026-04-23 15:06 | 6.64723 | 75.46946 | 34000 ft | 463 kts | 218° |
| 2026-04-23 15:06 | 6.59685 | 75.42957 | 34000 ft | 463 kts | 218° |
| 2026-04-23 15:07 | 6.54645 | 75.38967 | 34000 ft | 463 kts | 218° |
| 2026-04-23 15:07 | 6.49596 | 75.34971 | 34000 ft | 463 kts | 218° |
| 2026-04-23 15:08 | 6.44522 | 75.30957 | 34000 ft | 463 kts | 218° |
| 2026-04-23 15:09 | 6.36983 | 75.24995 | 34000 ft | 463 kts | 218° |
| 2026-04-23 15:09 | 6.31921 | 75.20992 | 33999 ft | 463 kts | 218° |
| 2026-04-23 15:10 | 6.26881 | 75.17009 | 34000 ft | 463 kts | 218° |
| 2026-04-23 15:10 | 6.21855 | 75.13036 | 34000 ft | 463 kts | 218° |
| 2026-04-23 15:11 | 6.16779 | 75.09026 | 34000 ft | 463 kts | 218° |
| 2026-04-23 15:11 | 6.11751 | 75.05054 | 34000 ft | 463 kts | 218° |
| 2026-04-23 15:12 | 6.06673 | 75.01045 | 34000 ft | 463 kts | 218° |
| 2026-04-23 15:12 | 6.01641 | 74.97072 | 34000 ft | 463 kts | 218° |
| 2026-04-23 15:13 | 5.96598 | 74.93070 | 34000 ft | 463 kts | 218° |
| 2026-04-23 15:13 | 5.91581 | 74.89078 | 34000 ft | 463 kts | 218° |
| 2026-04-23 15:14 | 5.86559 | 74.85085 | 34000 ft | 463 kts | 218° |
| 2026-04-23 15:14 | 5.81534 | 74.81089 | 34000 ft | 463 kts | 218° |
| 2026-04-23 15:15 | 5.76500 | 74.77087 | 34000 ft | 463 kts | 218° |
| 2026-04-23 15:15 | 5.71454 | 74.73077 | 34000 ft | 463 kts | 218° |
| 2026-04-23 15:16 | 5.66425 | 74.69080 | 34000 ft | 463 kts | 218° |
| 2026-04-23 15:16 | 5.61401 | 74.65089 | 34000 ft | 463 kts | 218° |
| 2026-04-23 15:17 | 5.56350 | 74.61078 | 34000 ft | 463 kts | 218° |
| 2026-04-23 15:17 | 5.51320 | 74.57084 | 34000 ft | 463 kts | 218° |
| 2026-04-23 15:18 | 5.46306 | 74.53104 | 34000 ft | 463 kts | 218° |
| 2026-04-23 15:18 | 5.41160 | 74.49204 | 34001 ft | 463 kts | 216° |
| 2026-04-23 15:19 | 5.36050 | 74.45440 | 33967 ft | 443 kts | 216° |
| 2026-04-23 15:19 | 5.33652 | 74.43673 | 33974 ft | 423 kts | 216° |
| 2026-04-23 15:19 | 5.31309 | 74.41949 | 33964 ft | 415 kts | 216° |
| 2026-04-23 15:20 | 5.26596 | 74.38478 | 34005 ft | 428 kts | 216° |
| 2026-04-23 15:20 | 5.21776 | 74.34930 | 33998 ft | 429 kts | 216° |
| 2026-04-23 15:20 | 5.19382 | 74.33168 | 33849 ft | 432 kts | 216° |
| 2026-04-23 15:21 | 5.16953 | 74.31381 | 33083 ft | 437 kts | 216° |
| 2026-04-23 15:21 | 5.14511 | 74.29584 | 32406 ft | 435 kts | 216° |
| 2026-04-23 15:21 | 5.12109 | 74.27816 | 31734 ft | 432 kts | 216° |
| 2026-04-23 15:21 | 5.09689 | 74.26035 | 31068 ft | 430 kts | 216° |
| 2026-04-23 15:22 | 5.07288 | 74.24270 | 30419 ft | 430 kts | 216° |
| 2026-04-23 15:22 | 5.04898 | 74.22511 | 29785 ft | 433 kts | 216° |
| 2026-04-23 15:22 | 5.02470 | 74.20725 | 29147 ft | 436 kts | 216° |
| 2026-04-23 15:22 | 5.00026 | 74.18928 | 28509 ft | 438 kts | 216° |
| 2026-04-23 15:23 | 4.97597 | 74.17141 | 27855 ft | 438 kts | 216° |
| 2026-04-23 15:23 | 4.95158 | 74.15346 | 27233 ft | 435 kts | 216° |
| 2026-04-23 15:23 | 4.92752 | 74.13580 | 26618 ft | 429 kts | 216° |
| 2026-04-23 15:23 | 4.90369 | 74.11832 | 25981 ft | 425 kts | 216° |
| 2026-04-23 15:24 | 4.87989 | 74.10078 | 25379 ft | 419 kts | 216° |
| 2026-04-23 15:24 | 4.85626 | 74.08469 | 24735 ft | 416 kts | 208° |
| 2026-04-23 15:24 | 4.83068 | 74.07163 | 24140 ft | 412 kts | 206° |
| 2026-04-23 15:24 | 4.80505 | 74.05914 | 23518 ft | 408 kts | 206° |
| 2026-04-23 15:25 | 4.77958 | 74.04685 | 22911 ft | 404 kts | 205° |
| 2026-04-23 15:25 | 4.75457 | 74.03481 | 22319 ft | 401 kts | 206° |
| 2026-04-23 15:25 | 4.72973 | 74.02285 | 21737 ft | 397 kts | 205° |
| 2026-04-23 15:25 | 4.70499 | 74.01096 | 21163 ft | 393 kts | 205° |
| 2026-04-23 15:26 | 4.68036 | 73.99912 | 20595 ft | 390 kts | 206° |
| 2026-04-23 15:26 | 4.65616 | 73.98749 | 20042 ft | 387 kts | 205° |
| 2026-04-23 15:26 | 4.63210 | 73.97592 | 19497 ft | 384 kts | 205° |
| 2026-04-23 15:26 | 4.60846 | 73.96456 | 18966 ft | 381 kts | 205° |
| 2026-04-23 15:27 | 4.58461 | 73.95310 | 18434 ft | 378 kts | 205° |
| 2026-04-23 15:27 | 4.56092 | 73.94172 | 17910 ft | 375 kts | 205° |
| 2026-04-23 15:27 | 4.53769 | 73.93057 | 17401 ft | 372 kts | 205° |
| 2026-04-23 15:27 | 4.51474 | 73.91952 | 16901 ft | 369 kts | 206° |
| 2026-04-23 15:28 | 4.49174 | 73.90848 | 16405 ft | 366 kts | 205° |
| 2026-04-23 15:28 | 4.46889 | 73.89751 | 15916 ft | 364 kts | 205° |
| 2026-04-23 15:28 | 4.44614 | 73.88658 | 15438 ft | 361 kts | 205° |
| 2026-04-23 15:28 | 4.42381 | 73.87585 | 15148 ft | 355 kts | 205° |
| 2026-04-23 15:29 | 4.40131 | 73.86507 | 14834 ft | 360 kts | 205° |
| 2026-04-23 15:29 | 4.37903 | 73.85435 | 14344 ft | 358 kts | 205° |
| 2026-04-23 15:29 | 4.35676 | 73.84366 | 13865 ft | 354 kts | 205° |
| 2026-04-23 15:29 | 4.33459 | 73.83302 | 13396 ft | 350 kts | 205° |
| 2026-04-23 15:30 | 4.31287 | 73.82259 | 12943 ft | 348 kts | 205° |
| 2026-04-23 15:30 | 4.29110 | 73.81213 | 12494 ft | 346 kts | 205° |
| 2026-04-23 15:30 | 4.26948 | 73.80175 | 12052 ft | 344 kts | 205° |
| 2026-04-23 15:30 | 4.24821 | 73.79154 | 11621 ft | 342 kts | 205° |
| 2026-04-23 15:31 | 4.22698 | 73.78135 | 11195 ft | 339 kts | 205° |
| 2026-04-23 15:31 | 4.20563 | 73.77110 | 10770 ft | 337 kts | 205° |
| 2026-04-23 15:31 | 4.18461 | 73.76102 | 10356 ft | 335 kts | 205° |
| 2026-04-23 15:31 | 4.16393 | 73.75108 | 9950 ft | 331 kts | 205° |
| 2026-04-23 15:32 | 4.14348 | 73.74127 | 9543 ft | 323 kts | 205° |
| 2026-04-23 15:32 | 4.12335 | 73.73161 | 9130 ft | 316 kts | 205° |
| 2026-04-23 15:32 | 4.10389 | 73.72227 | 8717 ft | 310 kts | 205° |
| 2026-04-23 15:32 | 4.08452 | 73.71298 | 8315 ft | 304 kts | 205° |
| 2026-04-23 15:33 | 4.06572 | 73.70396 | 7941 ft | 299 kts | 205° |
| 2026-04-23 15:33 | 4.04717 | 73.69506 | 7605 ft | 292 kts | 205° |
| 2026-04-23 15:33 | 4.02910 | 73.68639 | 7289 ft | 286 kts | 205° |
| 2026-04-23 15:33 | 4.01144 | 73.67792 | 6979 ft | 281 kts | 205° |
| 2026-04-23 15:34 | 3.99410 | 73.66960 | 6718 ft | 273 kts | 205° |
| 2026-04-23 15:34 | 3.97757 | 73.66167 | 6543 ft | 256 kts | 205° |
| 2026-04-23 15:34 | 3.96204 | 73.65336 | 6243 ft | 249 kts | 217° |
| 2026-04-23 15:34 | 3.95282 | 73.63969 | 5938 ft | 225 kts | 249° |
| 2026-04-23 15:35 | 3.94995 | 73.62459 | 5692 ft | 222 kts | 265° |
| 2026-04-23 15:35 | 3.94929 | 73.60915 | 5473 ft | 225 kts | 269° |
| 2026-04-23 15:35 | 3.94912 | 73.59328 | 5214 ft | 226 kts | 270° |
| 2026-04-23 15:35 | 3.94907 | 73.57781 | 4919 ft | 213 kts | 270° |
| 2026-04-23 15:36 | 3.94904 | 73.56360 | 4579 ft | 201 kts | 270° |
| 2026-04-23 15:36 | 3.94916 | 73.54956 | 4249 ft | 200 kts | 275° |
| 2026-04-23 15:36 | 3.95572 | 73.53799 | 4112 ft | 195 kts | 322° |
| 2026-04-23 15:36 | 3.96838 | 73.53316 | 4196 ft | 200 kts | 349° |
| 2026-04-23 15:37 | 3.98240 | 73.53173 | 4185 ft | 202 kts | 357° |
| 2026-04-23 15:37 | 3.99634 | 73.53133 | 4170 ft | 201 kts | 359° |
| 2026-04-23 15:37 | 4.01024 | 73.53128 | 4173 ft | 201 kts | 0° |
| 2026-04-23 15:37 | 4.02451 | 73.53129 | 3945 ft | 204 kts | 0° |
| 2026-04-23 15:38 | 4.03839 | 73.53127 | 3556 ft | 194 kts | 0° |
| 2026-04-23 15:38 | 4.05099 | 73.53125 | 3143 ft | 173 kts | 0° |
| 2026-04-23 15:38 | 4.06243 | 73.53123 | 2710 ft | 160 kts | 0° |
| 2026-04-23 15:38 | 4.07325 | 73.53120 | 2297 ft | 150 kts | 360° |
| 2026-04-23 15:39 | 4.08334 | 73.53117 | 2053 ft | 142 kts | 360° |
| 2026-04-23 15:39 | 4.09330 | 73.53117 | 1858 ft | 144 kts | 0° |
| 2026-04-23 15:39 | 4.10336 | 73.53116 | 1659 ft | 143 kts | 0° |
| 2026-04-23 15:39 | 4.11308 | 73.53114 | 1451 ft | 139 kts | 0° |
| 2026-04-23 15:40 | 4.12287 | 73.53113 | 1263 ft | 141 kts | 360° |
| 2026-04-23 15:40 | 4.13267 | 73.53111 | 1077 ft | 142 kts | 0° |
| 2026-04-23 15:40 | 4.14249 | 73.53102 | 895 ft | 141 kts | 357° |
| 2026-04-23 15:40 | 4.15225 | 73.53023 | 658 ft | 142 kts | 355° |
| 2026-04-23 15:41 | 4.16190 | 73.52939 | 436 ft | 137 kts | 356° |
| 2026-04-23 15:41 | 4.17134 | 73.52928 | 235 ft | 137 kts | 1° |
| 2026-04-23 15:41 | 4.18085 | 73.52929 | 56 ft | 134 kts | 358° |
| 2026-04-23 15:41 | 4.18950 | 73.52922 | 16 ft | 112 kts | 0° |
| 2026-04-23 15:42 | 4.19524 | 73.52911 | 15 ft | 50 kts | 358° |
| 2026-04-23 15:42 | 4.19720 | 73.52906 | 13 ft | 7 kts | 359° |
| 2026-04-23 15:42 | 4.19724 | 73.52906 | 13 ft | 0 kts | 360° |
| 2026-04-23 15:43 | 4.19726 | 73.52907 | 13 ft | 1 kts | 5° |
| 2026-04-23 15:43 | 4.19741 | 73.52912 | 13 ft | 3 kts | 22° |
| 2026-04-23 15:43 | 4.19772 | 73.52919 | 13 ft | 7 kts | 6° |
| 2026-04-23 15:43 | 4.19855 | 73.52921 | 12 ft | 16 kts | 1° |
| 2026-04-23 15:44 | 4.19839 | 73.52889 | 12 ft | 15 kts | 162° |
| 2026-04-23 15:44 | 4.19742 | 73.52904 | 13 ft | 16 kts | 182° |
| 2026-04-23 15:44 | 4.19644 | 73.52899 | 13 ft | 3 kts | 183° |
| 2026-04-23 15:44 | 4.19596 | 73.52892 | 14 ft | 7 kts | 193° |
| 2026-04-23 15:45 | 4.19516 | 73.52892 | 15 ft | 15 kts | 179° |
| 2026-04-23 15:45 | 4.19380 | 73.52893 | 15 ft | 23 kts | 180° |
| 2026-04-23 15:45 | 4.19189 | 73.52895 | 15 ft | 30 kts | 176° |
| 2026-04-23 15:45 | 4.19048 | 73.52889 | 15 ft | 12 kts | 230° |
| 2026-04-23 15:46 | 4.19041 | 73.52874 | 15 ft | 0 kts | 255° |